<?xml version="1.0" encoding="UTF-8" standalone="no" ?>
<gpx xmlns="http://www.topografix.com/GPX/1/1" xmlns:xsi="http://www.w3.org/2001/XMLSchema-instance" xsi:schemaLocation="http://www.topografix.com/GPX/1/1 http://www.topografix.com/GPX/1/1/gpx.xsd" version="1.1" creator="VisuGPX - https://www.visugpx.com">
  <metadata>
    <name>Rando autour du Hartmanswillerkopf</name>
    <desc><![CDATA[12,8km 900m Balade avec un intérêt historique (1870-1818)
Vestiges de fortifications allemandes]]></desc>
  </metadata>
  <trk>
    <name><![CDATA[Rando autour du Hartmanswillerkopf_1]]></name>
    <trkseg>
      <trkpt lat="47.85836" lon="7.14862">
        <ele>903</ele>
        <time>2017-10-15T07:53:03.808Z</time>
      </trkpt>
      <trkpt lat="47.85824" lon="7.14872">
        <ele>901</ele>
        <time>2017-10-15T07:54:04.789Z</time>
      </trkpt>
      <trkpt lat="47.85824" lon="7.14875">
        <ele>901</ele>
        <time>2017-10-15T07:55:05.795Z</time>
      </trkpt>
      <trkpt lat="47.85823" lon="7.14873">
        <ele>901</ele>
        <time>2017-10-15T07:56:06.789Z</time>
      </trkpt>
      <trkpt lat="47.85826" lon="7.14867">
        <ele>901</ele>
        <time>2017-10-15T07:57:06.79Z</time>
      </trkpt>
      <trkpt lat="47.85841" lon="7.14862">
        <ele>903</ele>
        <time>2017-10-15T07:57:47.788Z</time>
      </trkpt>
      <trkpt lat="47.85856" lon="7.14868">
        <ele>901</ele>
        <time>2017-10-15T07:57:57.785Z</time>
      </trkpt>
      <trkpt lat="47.85848" lon="7.14892">
        <ele>901</ele>
        <time>2017-10-15T07:58:20.791Z</time>
      </trkpt>
      <trkpt lat="47.85857" lon="7.14908">
        <ele>900</ele>
        <time>2017-10-15T07:58:29.785Z</time>
      </trkpt>
      <trkpt lat="47.8586" lon="7.14929">
        <ele>899</ele>
        <time>2017-10-15T07:58:44.785Z</time>
      </trkpt>
      <trkpt lat="47.85856" lon="7.14948">
        <ele>899</ele>
        <time>2017-10-15T07:59:01.785Z</time>
      </trkpt>
      <trkpt lat="47.85849" lon="7.14979">
        <ele>899</ele>
        <time>2017-10-15T07:59:16.789Z</time>
      </trkpt>
      <trkpt lat="47.85836" lon="7.14989">
        <ele>898</ele>
        <time>2017-10-15T07:59:24.791Z</time>
      </trkpt>
      <trkpt lat="47.85831" lon="7.15024">
        <ele>892</ele>
        <time>2017-10-15T08:00:18.785Z</time>
      </trkpt>
      <trkpt lat="47.85833" lon="7.15046">
        <ele>891</ele>
        <time>2017-10-15T08:00:30.786Z</time>
      </trkpt>
      <trkpt lat="47.85831" lon="7.15066">
        <ele>891</ele>
        <time>2017-10-15T08:00:41.788Z</time>
      </trkpt>
      <trkpt lat="47.85827" lon="7.15091">
        <ele>891</ele>
        <time>2017-10-15T08:00:55.784Z</time>
      </trkpt>
      <trkpt lat="47.85833" lon="7.15118">
        <ele>893</ele>
        <time>2017-10-15T08:01:12.783Z</time>
      </trkpt>
      <trkpt lat="47.85836" lon="7.1514">
        <ele>891</ele>
        <time>2017-10-15T08:01:27.789Z</time>
      </trkpt>
      <trkpt lat="47.85804" lon="7.15194">
        <ele>880</ele>
        <time>2017-10-15T08:02:09.788Z</time>
      </trkpt>
      <trkpt lat="47.85786" lon="7.15208">
        <ele>879</ele>
        <time>2017-10-15T08:02:28.796Z</time>
      </trkpt>
      <trkpt lat="47.85779" lon="7.15228">
        <ele>877</ele>
        <time>2017-10-15T08:02:42.784Z</time>
      </trkpt>
      <trkpt lat="47.85773" lon="7.15254">
        <ele>873</ele>
        <time>2017-10-15T08:03:00.785Z</time>
      </trkpt>
      <trkpt lat="47.85766" lon="7.1528">
        <ele>872</ele>
        <time>2017-10-15T08:03:16.821Z</time>
      </trkpt>
      <trkpt lat="47.85758" lon="7.15299">
        <ele>871</ele>
        <time>2017-10-15T08:03:27.784Z</time>
      </trkpt>
      <trkpt lat="47.85745" lon="7.15341">
        <ele>867</ele>
        <time>2017-10-15T08:03:54.785Z</time>
      </trkpt>
      <trkpt lat="47.85727" lon="7.15405">
        <ele>862</ele>
        <time>2017-10-15T08:04:38.781Z</time>
      </trkpt>
      <trkpt lat="47.85707" lon="7.15457">
        <ele>854</ele>
        <time>2017-10-15T08:05:13.785Z</time>
      </trkpt>
      <trkpt lat="47.85692" lon="7.15485">
        <ele>851</ele>
        <time>2017-10-15T08:05:37.788Z</time>
      </trkpt>
      <trkpt lat="47.85685" lon="7.15514">
        <ele>845</ele>
        <time>2017-10-15T08:05:53.788Z</time>
      </trkpt>
      <trkpt lat="47.85676" lon="7.15543">
        <ele>844</ele>
        <time>2017-10-15T08:06:12.781Z</time>
      </trkpt>
      <trkpt lat="47.85652" lon="7.15599">
        <ele>835</ele>
        <time>2017-10-15T08:06:48.784Z</time>
      </trkpt>
      <trkpt lat="47.85632" lon="7.15631">
        <ele>832</ele>
        <time>2017-10-15T08:07:13.783Z</time>
      </trkpt>
      <trkpt lat="47.85595" lon="7.15683">
        <ele>819</ele>
        <time>2017-10-15T08:07:52.783Z</time>
      </trkpt>
      <trkpt lat="47.85562" lon="7.15731">
        <ele>809</ele>
        <time>2017-10-15T08:08:42.783Z</time>
      </trkpt>
      <trkpt lat="47.8552" lon="7.15767">
        <ele>795</ele>
        <time>2017-10-15T08:09:29.781Z</time>
      </trkpt>
      <trkpt lat="47.85506" lon="7.15772">
        <ele>795</ele>
        <time>2017-10-15T08:09:39.78Z</time>
      </trkpt>
      <trkpt lat="47.85488" lon="7.15814">
        <ele>785</ele>
        <time>2017-10-15T08:10:20.781Z</time>
      </trkpt>
      <trkpt lat="47.85477" lon="7.15835">
        <ele>775</ele>
        <time>2017-10-15T08:10:46.785Z</time>
      </trkpt>
      <trkpt lat="47.85447" lon="7.15888">
        <ele>770</ele>
        <time>2017-10-15T08:11:30.781Z</time>
      </trkpt>
      <trkpt lat="47.85424" lon="7.15885">
        <ele>769</ele>
        <time>2017-10-15T08:12:30.788Z</time>
      </trkpt>
      <trkpt lat="47.85419" lon="7.15884">
        <ele>769</ele>
        <time>2017-10-15T08:13:31.783Z</time>
      </trkpt>
      <trkpt lat="47.85456" lon="7.15893">
        <ele>771</ele>
        <time>2017-10-15T08:14:31.785Z</time>
      </trkpt>
      <trkpt lat="47.85408" lon="7.15948">
        <ele>752</ele>
        <time>2017-10-15T08:15:32.78Z</time>
      </trkpt>
      <trkpt lat="47.85402" lon="7.15966">
        <ele>750</ele>
        <time>2017-10-15T08:15:42.78Z</time>
      </trkpt>
      <trkpt lat="47.85387" lon="7.15972">
        <ele>749</ele>
        <time>2017-10-15T08:15:48.78Z</time>
      </trkpt>
      <trkpt lat="47.85357" lon="7.15986">
        <ele>745</ele>
        <time>2017-10-15T08:16:17.781Z</time>
      </trkpt>
      <trkpt lat="47.85311" lon="7.16004">
        <ele>732</ele>
        <time>2017-10-15T08:16:52.78Z</time>
      </trkpt>
      <trkpt lat="47.85296" lon="7.16013">
        <ele>731</ele>
        <time>2017-10-15T08:17:04.811Z</time>
      </trkpt>
      <trkpt lat="47.85253" lon="7.16041">
        <ele>728</ele>
        <time>2017-10-15T08:17:40.78Z</time>
      </trkpt>
      <trkpt lat="47.85235" lon="7.16074">
        <ele>726</ele>
        <time>2017-10-15T08:18:07.78Z</time>
      </trkpt>
      <trkpt lat="47.85186" lon="7.16126">
        <ele>711</ele>
        <time>2017-10-15T08:18:53.78Z</time>
      </trkpt>
      <trkpt lat="47.85173" lon="7.16123">
        <ele>713</ele>
        <time>2017-10-15T08:19:01.78Z</time>
      </trkpt>
      <trkpt lat="47.85126" lon="7.16134">
        <ele>715</ele>
        <time>2017-10-15T08:19:39.779Z</time>
      </trkpt>
      <trkpt lat="47.8511" lon="7.16137">
        <ele>715</ele>
        <time>2017-10-15T08:19:56.78Z</time>
      </trkpt>
      <trkpt lat="47.85054" lon="7.16156">
        <ele>708</ele>
        <time>2017-10-15T08:20:37.78Z</time>
      </trkpt>
      <trkpt lat="47.85035" lon="7.16159">
        <ele>707</ele>
        <time>2017-10-15T08:20:47.779Z</time>
      </trkpt>
      <trkpt lat="47.85024" lon="7.16147">
        <ele>706</ele>
        <time>2017-10-15T08:20:56.779Z</time>
      </trkpt>
      <trkpt lat="47.85005" lon="7.16124">
        <ele>708</ele>
        <time>2017-10-15T08:21:14.779Z</time>
      </trkpt>
      <trkpt lat="47.84991" lon="7.16098">
        <ele>699</ele>
        <time>2017-10-15T08:21:33.778Z</time>
      </trkpt>
      <trkpt lat="47.84988" lon="7.16078">
        <ele>702</ele>
        <time>2017-10-15T08:21:47.778Z</time>
      </trkpt>
      <trkpt lat="47.84991" lon="7.16052">
        <ele>698</ele>
        <time>2017-10-15T08:21:59.778Z</time>
      </trkpt>
      <trkpt lat="47.84981" lon="7.16026">
        <ele>697</ele>
        <time>2017-10-15T08:22:12.791Z</time>
      </trkpt>
      <trkpt lat="47.84977" lon="7.16006">
        <ele>697</ele>
        <time>2017-10-15T08:22:23.778Z</time>
      </trkpt>
      <trkpt lat="47.84976" lon="7.15975">
        <ele>694</ele>
        <time>2017-10-15T08:22:39.78Z</time>
      </trkpt>
      <trkpt lat="47.84984" lon="7.15899">
        <ele>691</ele>
        <time>2017-10-15T08:23:21.79Z</time>
      </trkpt>
      <trkpt lat="47.84999" lon="7.15835">
        <ele>696</ele>
        <time>2017-10-15T08:23:58.775Z</time>
      </trkpt>
      <trkpt lat="47.85" lon="7.15806">
        <ele>683</ele>
        <time>2017-10-15T08:24:13.795Z</time>
      </trkpt>
      <trkpt lat="47.85005" lon="7.15783">
        <ele>706</ele>
        <time>2017-10-15T08:24:24.78Z</time>
      </trkpt>
      <trkpt lat="47.85007" lon="7.15762">
        <ele>699</ele>
        <time>2017-10-15T08:24:32.793Z</time>
      </trkpt>
      <trkpt lat="47.85012" lon="7.15743">
        <ele>696</ele>
        <time>2017-10-15T08:24:41.775Z</time>
      </trkpt>
      <trkpt lat="47.84994" lon="7.15754">
        <ele>684</ele>
        <time>2017-10-15T08:25:09.775Z</time>
      </trkpt>
      <trkpt lat="47.84972" lon="7.15789">
        <ele>675</ele>
        <time>2017-10-15T08:25:37.776Z</time>
      </trkpt>
      <trkpt lat="47.84932" lon="7.15825">
        <ele>663</ele>
        <time>2017-10-15T08:26:18.776Z</time>
      </trkpt>
      <trkpt lat="47.84921" lon="7.15853">
        <ele>668</ele>
        <time>2017-10-15T08:26:35.776Z</time>
      </trkpt>
      <trkpt lat="47.84903" lon="7.15903">
        <ele>649</ele>
        <time>2017-10-15T08:27:07.78Z</time>
      </trkpt>
      <trkpt lat="47.84885" lon="7.1594">
        <ele>647</ele>
        <time>2017-10-15T08:27:32.791Z</time>
      </trkpt>
      <trkpt lat="47.84881" lon="7.15959">
        <ele>646</ele>
        <time>2017-10-15T08:27:39.778Z</time>
      </trkpt>
      <trkpt lat="47.84863" lon="7.16062">
        <ele>647</ele>
        <time>2017-10-15T08:28:39.78Z</time>
      </trkpt>
      <trkpt lat="47.84857" lon="7.16129">
        <ele>649</ele>
        <time>2017-10-15T08:29:11.783Z</time>
      </trkpt>
      <trkpt lat="47.84855" lon="7.16202">
        <ele>650</ele>
        <time>2017-10-15T08:29:44.78Z</time>
      </trkpt>
      <trkpt lat="47.84848" lon="7.16221">
        <ele>648</ele>
        <time>2017-10-15T08:29:55.783Z</time>
      </trkpt>
      <trkpt lat="47.84838" lon="7.16264">
        <ele>643</ele>
        <time>2017-10-15T08:30:16.778Z</time>
      </trkpt>
      <trkpt lat="47.84831" lon="7.16284">
        <ele>633</ele>
        <time>2017-10-15T08:30:29.776Z</time>
      </trkpt>
      <trkpt lat="47.84829" lon="7.16318">
        <ele>633</ele>
        <time>2017-10-15T08:30:46.778Z</time>
      </trkpt>
      <trkpt lat="47.84835" lon="7.16385">
        <ele>632</ele>
        <time>2017-10-15T08:31:22.779Z</time>
      </trkpt>
      <trkpt lat="47.84866" lon="7.16426">
        <ele>623</ele>
        <time>2017-10-15T08:32:00.778Z</time>
      </trkpt>
      <trkpt lat="47.84873" lon="7.16445">
        <ele>623</ele>
        <time>2017-10-15T08:32:06.775Z</time>
      </trkpt>
      <trkpt lat="47.84884" lon="7.16481">
        <ele>620</ele>
        <time>2017-10-15T08:32:28.778Z</time>
      </trkpt>
      <trkpt lat="47.84878" lon="7.16502">
        <ele>610</ele>
        <time>2017-10-15T08:32:38.778Z</time>
      </trkpt>
      <trkpt lat="47.84835" lon="7.16574">
        <ele>600</ele>
        <time>2017-10-15T08:33:36.781Z</time>
      </trkpt>
      <trkpt lat="47.84823" lon="7.16651">
        <ele>588</ele>
        <time>2017-10-15T08:34:14.78Z</time>
      </trkpt>
      <trkpt lat="47.84821" lon="7.16672">
        <ele>586</ele>
        <time>2017-10-15T08:34:21.778Z</time>
      </trkpt>
      <trkpt lat="47.84805" lon="7.16717">
        <ele>579</ele>
        <time>2017-10-15T08:34:54.778Z</time>
      </trkpt>
      <trkpt lat="47.848" lon="7.16739">
        <ele>577</ele>
        <time>2017-10-15T08:35:07.778Z</time>
      </trkpt>
      <trkpt lat="47.84769" lon="7.16788">
        <ele>567</ele>
        <time>2017-10-15T08:35:55.776Z</time>
      </trkpt>
      <trkpt lat="47.84746" lon="7.16806">
        <ele>559</ele>
        <time>2017-10-15T08:36:23.784Z</time>
      </trkpt>
      <trkpt lat="47.84726" lon="7.16819">
        <ele>558</ele>
        <time>2017-10-15T08:36:42.776Z</time>
      </trkpt>
      <trkpt lat="47.84711" lon="7.16828">
        <ele>556</ele>
        <time>2017-10-15T08:36:54.776Z</time>
      </trkpt>
      <trkpt lat="47.84675" lon="7.16859">
        <ele>548</ele>
        <time>2017-10-15T08:37:54.776Z</time>
      </trkpt>
      <trkpt lat="47.84668" lon="7.1687">
        <ele>548</ele>
        <time>2017-10-15T08:38:54.78Z</time>
      </trkpt>
      <trkpt lat="47.8466" lon="7.16853">
        <ele>548</ele>
        <time>2017-10-15T08:39:27.778Z</time>
      </trkpt>
      <trkpt lat="47.84664" lon="7.1685">
        <ele>547</ele>
        <time>2017-10-15T08:40:28.776Z</time>
      </trkpt>
      <trkpt lat="47.84666" lon="7.16846">
        <ele>547</ele>
        <time>2017-10-15T08:41:28.779Z</time>
      </trkpt>
      <trkpt lat="47.84656" lon="7.16863">
        <ele>548</ele>
        <time>2017-10-15T08:41:37.778Z</time>
      </trkpt>
      <trkpt lat="47.84661" lon="7.16862">
        <ele>548</ele>
        <time>2017-10-15T08:42:37.778Z</time>
      </trkpt>
      <trkpt lat="47.84671" lon="7.16879">
        <ele>548</ele>
        <time>2017-10-15T08:43:30.78Z</time>
      </trkpt>
      <trkpt lat="47.84683" lon="7.16912">
        <ele>547</ele>
        <time>2017-10-15T08:43:48.779Z</time>
      </trkpt>
      <trkpt lat="47.84698" lon="7.1691">
        <ele>548</ele>
        <time>2017-10-15T08:44:10.773Z</time>
      </trkpt>
      <trkpt lat="47.84741" lon="7.16924">
        <ele>543</ele>
        <time>2017-10-15T08:44:45.78Z</time>
      </trkpt>
      <trkpt lat="47.84775" lon="7.16913">
        <ele>547</ele>
        <time>2017-10-15T08:45:14.776Z</time>
      </trkpt>
      <trkpt lat="47.84785" lon="7.16895">
        <ele>549</ele>
        <time>2017-10-15T08:46:14.776Z</time>
      </trkpt>
      <trkpt lat="47.84795" lon="7.16915">
        <ele>547</ele>
        <time>2017-10-15T08:47:14.778Z</time>
      </trkpt>
      <trkpt lat="47.84802" lon="7.16922">
        <ele>537</ele>
        <time>2017-10-15T08:48:14.804Z</time>
      </trkpt>
      <trkpt lat="47.84829" lon="7.16902">
        <ele>545</ele>
        <time>2017-10-15T08:48:54.778Z</time>
      </trkpt>
      <trkpt lat="47.8486" lon="7.169">
        <ele>546</ele>
        <time>2017-10-15T08:49:54.779Z</time>
      </trkpt>
      <trkpt lat="47.84874" lon="7.16904">
        <ele>546</ele>
        <time>2017-10-15T08:50:10.775Z</time>
      </trkpt>
      <trkpt lat="47.84887" lon="7.16895">
        <ele>547</ele>
        <time>2017-10-15T08:50:19.775Z</time>
      </trkpt>
      <trkpt lat="47.84909" lon="7.16896">
        <ele>545</ele>
        <time>2017-10-15T08:50:37.776Z</time>
      </trkpt>
      <trkpt lat="47.84927" lon="7.16892">
        <ele>547</ele>
        <time>2017-10-15T08:50:48.775Z</time>
      </trkpt>
      <trkpt lat="47.8497" lon="7.16913">
        <ele>548</ele>
        <time>2017-10-15T08:51:39.775Z</time>
      </trkpt>
      <trkpt lat="47.84987" lon="7.16901">
        <ele>549</ele>
        <time>2017-10-15T08:51:50.776Z</time>
      </trkpt>
      <trkpt lat="47.85023" lon="7.16942">
        <ele>552</ele>
        <time>2017-10-15T08:52:50.775Z</time>
      </trkpt>
      <trkpt lat="47.85042" lon="7.16918">
        <ele>555</ele>
        <time>2017-10-15T08:53:32.775Z</time>
      </trkpt>
      <trkpt lat="47.85038" lon="7.1685">
        <ele>561</ele>
        <time>2017-10-15T08:54:21.776Z</time>
      </trkpt>
      <trkpt lat="47.85042" lon="7.1683">
        <ele>567</ele>
        <time>2017-10-15T08:54:32.775Z</time>
      </trkpt>
      <trkpt lat="47.85049" lon="7.16811">
        <ele>568</ele>
        <time>2017-10-15T08:54:54.775Z</time>
      </trkpt>
      <trkpt lat="47.85058" lon="7.16794">
        <ele>570</ele>
        <time>2017-10-15T08:55:03.776Z</time>
      </trkpt>
      <trkpt lat="47.85072" lon="7.16719">
        <ele>578</ele>
        <time>2017-10-15T08:55:54.775Z</time>
      </trkpt>
      <trkpt lat="47.85086" lon="7.16748">
        <ele>578</ele>
        <time>2017-10-15T08:56:54.775Z</time>
      </trkpt>
      <trkpt lat="47.85116" lon="7.16799">
        <ele>583</ele>
        <time>2017-10-15T08:57:38.776Z</time>
      </trkpt>
      <trkpt lat="47.85129" lon="7.16812">
        <ele>584</ele>
        <time>2017-10-15T08:57:47.776Z</time>
      </trkpt>
      <trkpt lat="47.85172" lon="7.16832">
        <ele>594</ele>
        <time>2017-10-15T08:58:34.775Z</time>
      </trkpt>
      <trkpt lat="47.85214" lon="7.16848">
        <ele>598</ele>
        <time>2017-10-15T08:59:14.776Z</time>
      </trkpt>
      <trkpt lat="47.85227" lon="7.16835">
        <ele>601</ele>
        <time>2017-10-15T08:59:22.775Z</time>
      </trkpt>
      <trkpt lat="47.85241" lon="7.16839">
        <ele>603</ele>
        <time>2017-10-15T08:59:45.775Z</time>
      </trkpt>
      <trkpt lat="47.85255" lon="7.16823">
        <ele>614</ele>
        <time>2017-10-15T09:00:45.78Z</time>
      </trkpt>
      <trkpt lat="47.8526" lon="7.16833">
        <ele>613</ele>
        <time>2017-10-15T09:01:46.776Z</time>
      </trkpt>
      <trkpt lat="47.85265" lon="7.16828">
        <ele>616</ele>
        <time>2017-10-15T09:02:46.779Z</time>
      </trkpt>
      <trkpt lat="47.85271" lon="7.16814">
        <ele>621</ele>
        <time>2017-10-15T09:03:47.775Z</time>
      </trkpt>
      <trkpt lat="47.85294" lon="7.16784">
        <ele>627</ele>
        <time>2017-10-15T09:04:47.775Z</time>
      </trkpt>
      <trkpt lat="47.85286" lon="7.16785">
        <ele>626</ele>
        <time>2017-10-15T09:05:59.781Z</time>
      </trkpt>
      <trkpt lat="47.85241" lon="7.1678">
        <ele>609</ele>
        <time>2017-10-15T09:06:48.793Z</time>
      </trkpt>
      <trkpt lat="47.85246" lon="7.16754">
        <ele>618</ele>
        <time>2017-10-15T09:07:06.775Z</time>
      </trkpt>
      <trkpt lat="47.85259" lon="7.1673">
        <ele>633</ele>
        <time>2017-10-15T09:08:06.779Z</time>
      </trkpt>
      <trkpt lat="47.85288" lon="7.16733">
        <ele>638</ele>
        <time>2017-10-15T09:09:06.779Z</time>
      </trkpt>
      <trkpt lat="47.85297" lon="7.16725">
        <ele>640</ele>
        <time>2017-10-15T09:10:06.779Z</time>
      </trkpt>
      <trkpt lat="47.85297" lon="7.16733">
        <ele>639</ele>
        <time>2017-10-15T09:11:06.78Z</time>
      </trkpt>
      <trkpt lat="47.85307" lon="7.16716">
        <ele>642</ele>
        <time>2017-10-15T09:12:07.814Z</time>
      </trkpt>
      <trkpt lat="47.85307" lon="7.16682">
        <ele>647</ele>
        <time>2017-10-15T09:13:08.775Z</time>
      </trkpt>
      <trkpt lat="47.85315" lon="7.16649">
        <ele>659</ele>
        <time>2017-10-15T09:14:09.773Z</time>
      </trkpt>
      <trkpt lat="47.85323" lon="7.16633">
        <ele>661</ele>
        <time>2017-10-15T09:14:23.77Z</time>
      </trkpt>
      <trkpt lat="47.85334" lon="7.16615">
        <ele>679</ele>
        <time>2017-10-15T09:15:23.778Z</time>
      </trkpt>
      <trkpt lat="47.8534" lon="7.16588">
        <ele>682</ele>
        <time>2017-10-15T09:16:23.786Z</time>
      </trkpt>
      <trkpt lat="47.85355" lon="7.16585">
        <ele>682</ele>
        <time>2017-10-15T09:16:38.774Z</time>
      </trkpt>
      <trkpt lat="47.85359" lon="7.16585">
        <ele>683</ele>
        <time>2017-10-15T09:17:38.775Z</time>
      </trkpt>
      <trkpt lat="47.85358" lon="7.16585">
        <ele>683</ele>
        <time>2017-10-15T09:18:38.779Z</time>
      </trkpt>
      <trkpt lat="47.85348" lon="7.16564">
        <ele>693</ele>
        <time>2017-10-15T09:19:14.771Z</time>
      </trkpt>
      <trkpt lat="47.85356" lon="7.16546">
        <ele>697</ele>
        <time>2017-10-15T09:19:30.776Z</time>
      </trkpt>
      <trkpt lat="47.85367" lon="7.1653">
        <ele>699</ele>
        <time>2017-10-15T09:19:52.77Z</time>
      </trkpt>
      <trkpt lat="47.85378" lon="7.16519">
        <ele>703</ele>
        <time>2017-10-15T09:20:10.771Z</time>
      </trkpt>
      <trkpt lat="47.85398" lon="7.16514">
        <ele>710</ele>
        <time>2017-10-15T09:21:10.771Z</time>
      </trkpt>
      <trkpt lat="47.85428" lon="7.16505">
        <ele>722</ele>
        <time>2017-10-15T09:22:10.773Z</time>
      </trkpt>
      <trkpt lat="47.85434" lon="7.16478">
        <ele>733</ele>
        <time>2017-10-15T09:23:10.775Z</time>
      </trkpt>
      <trkpt lat="47.85442" lon="7.16474">
        <ele>734</ele>
        <time>2017-10-15T09:24:10.778Z</time>
      </trkpt>
      <trkpt lat="47.85454" lon="7.16465">
        <ele>736</ele>
        <time>2017-10-15T09:24:52.774Z</time>
      </trkpt>
      <trkpt lat="47.85462" lon="7.16446">
        <ele>738</ele>
        <time>2017-10-15T09:25:31.771Z</time>
      </trkpt>
      <trkpt lat="47.85454" lon="7.16427">
        <ele>739</ele>
        <time>2017-10-15T09:26:31.775Z</time>
      </trkpt>
      <trkpt lat="47.85455" lon="7.16434">
        <ele>739</ele>
        <time>2017-10-15T09:27:31.775Z</time>
      </trkpt>
      <trkpt lat="47.85455" lon="7.16433">
        <ele>739</ele>
        <time>2017-10-15T09:28:31.78Z</time>
      </trkpt>
      <trkpt lat="47.85455" lon="7.16433">
        <ele>739</ele>
        <time>2017-10-15T09:29:32.775Z</time>
      </trkpt>
      <trkpt lat="47.85455" lon="7.16433">
        <ele>739</ele>
        <time>2017-10-15T09:30:32.775Z</time>
      </trkpt>
      <trkpt lat="47.85455" lon="7.16433">
        <ele>739</ele>
        <time>2017-10-15T09:31:32.775Z</time>
      </trkpt>
      <trkpt lat="47.85455" lon="7.16433">
        <ele>739</ele>
        <time>2017-10-15T09:32:32.776Z</time>
      </trkpt>
      <trkpt lat="47.85455" lon="7.16432">
        <ele>739</ele>
        <time>2017-10-15T09:33:32.783Z</time>
      </trkpt>
      <trkpt lat="47.8545" lon="7.16426">
        <ele>738</ele>
        <time>2017-10-15T09:34:33.77Z</time>
      </trkpt>
      <trkpt lat="47.85456" lon="7.16427">
        <ele>739</ele>
        <time>2017-10-15T09:35:33.778Z</time>
      </trkpt>
      <trkpt lat="47.85454" lon="7.16421">
        <ele>739</ele>
        <time>2017-10-15T09:36:34.778Z</time>
      </trkpt>
      <trkpt lat="47.85455" lon="7.16423">
        <ele>739</ele>
        <time>2017-10-15T09:37:34.779Z</time>
      </trkpt>
      <trkpt lat="47.85453" lon="7.16422">
        <ele>739</ele>
        <time>2017-10-15T09:38:35.775Z</time>
      </trkpt>
      <trkpt lat="47.85463" lon="7.16405">
        <ele>749</ele>
        <time>2017-10-15T09:39:16.773Z</time>
      </trkpt>
      <trkpt lat="47.85465" lon="7.16383">
        <ele>751</ele>
        <time>2017-10-15T09:39:35.774Z</time>
      </trkpt>
      <trkpt lat="47.85478" lon="7.1637">
        <ele>754</ele>
        <time>2017-10-15T09:40:03.774Z</time>
      </trkpt>
      <trkpt lat="47.85499" lon="7.16341">
        <ele>767</ele>
        <time>2017-10-15T09:40:43.775Z</time>
      </trkpt>
      <trkpt lat="47.85529" lon="7.16345">
        <ele>773</ele>
        <time>2017-10-15T09:41:40.774Z</time>
      </trkpt>
      <trkpt lat="47.85543" lon="7.16353">
        <ele>774</ele>
        <time>2017-10-15T09:42:04.773Z</time>
      </trkpt>
      <trkpt lat="47.85559" lon="7.16352">
        <ele>776</ele>
        <time>2017-10-15T09:42:19.774Z</time>
      </trkpt>
      <trkpt lat="47.8558" lon="7.16357">
        <ele>778</ele>
        <time>2017-10-15T09:43:19.776Z</time>
      </trkpt>
      <trkpt lat="47.85605" lon="7.16341">
        <ele>790</ele>
        <time>2017-10-15T09:43:52.771Z</time>
      </trkpt>
      <trkpt lat="47.85623" lon="7.16326">
        <ele>805</ele>
        <time>2017-10-15T09:44:12.78Z</time>
      </trkpt>
      <trkpt lat="47.85652" lon="7.1637">
        <ele>794</ele>
        <time>2017-10-15T09:45:12.793Z</time>
      </trkpt>
      <trkpt lat="47.8566" lon="7.16411">
        <ele>793</ele>
        <time>2017-10-15T09:45:41.77Z</time>
      </trkpt>
      <trkpt lat="47.85671" lon="7.1643">
        <ele>801</ele>
        <time>2017-10-15T09:45:59.77Z</time>
      </trkpt>
      <trkpt lat="47.85703" lon="7.16479">
        <ele>808</ele>
        <time>2017-10-15T09:46:54.771Z</time>
      </trkpt>
      <trkpt lat="47.85713" lon="7.16442">
        <ele>812</ele>
        <time>2017-10-15T09:47:54.775Z</time>
      </trkpt>
      <trkpt lat="47.85731" lon="7.1643">
        <ele>820</ele>
        <time>2017-10-15T09:48:55.773Z</time>
      </trkpt>
      <trkpt lat="47.85744" lon="7.16404">
        <ele>828</ele>
        <time>2017-10-15T09:49:55.778Z</time>
      </trkpt>
      <trkpt lat="47.85752" lon="7.16366">
        <ele>852</ele>
        <time>2017-10-15T09:50:26.775Z</time>
      </trkpt>
      <trkpt lat="47.85776" lon="7.16334">
        <ele>855</ele>
        <time>2017-10-15T09:51:27.781Z</time>
      </trkpt>
      <trkpt lat="47.85805" lon="7.16317">
        <ele>870</ele>
        <time>2017-10-15T09:52:28.77Z</time>
      </trkpt>
      <trkpt lat="47.85832" lon="7.16316">
        <ele>875</ele>
        <time>2017-10-15T09:53:28.773Z</time>
      </trkpt>
      <trkpt lat="47.85847" lon="7.16338">
        <ele>888</ele>
        <time>2017-10-15T09:54:28.773Z</time>
      </trkpt>
      <trkpt lat="47.85846" lon="7.16338">
        <ele>888</ele>
        <time>2017-10-15T09:55:28.816Z</time>
      </trkpt>
      <trkpt lat="47.85882" lon="7.16347">
        <ele>898</ele>
        <time>2017-10-15T09:56:29.776Z</time>
      </trkpt>
      <trkpt lat="47.85914" lon="7.16345">
        <ele>907</ele>
        <time>2017-10-15T09:57:30.78Z</time>
      </trkpt>
      <trkpt lat="47.85928" lon="7.16343">
        <ele>916</ele>
        <time>2017-10-15T09:58:31.78Z</time>
      </trkpt>
      <trkpt lat="47.85929" lon="7.16319">
        <ele>919</ele>
        <time>2017-10-15T09:58:58.77Z</time>
      </trkpt>
      <trkpt lat="47.8593" lon="7.16327">
        <ele>919</ele>
        <time>2017-10-15T09:59:58.771Z</time>
      </trkpt>
      <trkpt lat="47.8593" lon="7.1633">
        <ele>918</ele>
        <time>2017-10-15T10:00:59.773Z</time>
      </trkpt>
      <trkpt lat="47.85932" lon="7.16331">
        <ele>919</ele>
        <time>2017-10-15T10:01:59.775Z</time>
      </trkpt>
      <trkpt lat="47.85927" lon="7.16333">
        <ele>917</ele>
        <time>2017-10-15T10:03:00.781Z</time>
      </trkpt>
      <trkpt lat="47.85934" lon="7.1633">
        <ele>919</ele>
        <time>2017-10-15T10:04:01.774Z</time>
      </trkpt>
      <trkpt lat="47.85932" lon="7.16333">
        <ele>919</ele>
        <time>2017-10-15T10:05:01.775Z</time>
      </trkpt>
      <trkpt lat="47.85928" lon="7.16332">
        <ele>918</ele>
        <time>2017-10-15T10:06:02.786Z</time>
      </trkpt>
      <trkpt lat="47.85955" lon="7.16312">
        <ele>923</ele>
        <time>2017-10-15T10:06:41.77Z</time>
      </trkpt>
      <trkpt lat="47.85968" lon="7.16321">
        <ele>925</ele>
        <time>2017-10-15T10:07:04.77Z</time>
      </trkpt>
      <trkpt lat="47.8598" lon="7.16333">
        <ele>926</ele>
        <time>2017-10-15T10:07:16.773Z</time>
      </trkpt>
      <trkpt lat="47.85985" lon="7.16354">
        <ele>922</ele>
        <time>2017-10-15T10:07:33.775Z</time>
      </trkpt>
      <trkpt lat="47.85967" lon="7.16326">
        <ele>924</ele>
        <time>2017-10-15T10:08:34.778Z</time>
      </trkpt>
      <trkpt lat="47.85985" lon="7.16312">
        <ele>926</ele>
        <time>2017-10-15T10:09:11.774Z</time>
      </trkpt>
      <trkpt lat="47.86016" lon="7.16297">
        <ele>933</ele>
        <time>2017-10-15T10:09:48.774Z</time>
      </trkpt>
      <trkpt lat="47.86022" lon="7.16276">
        <ele>934</ele>
        <time>2017-10-15T10:10:03.776Z</time>
      </trkpt>
      <trkpt lat="47.86038" lon="7.16233">
        <ele>939</ele>
        <time>2017-10-15T10:10:40.771Z</time>
      </trkpt>
      <trkpt lat="47.86047" lon="7.16217">
        <ele>940</ele>
        <time>2017-10-15T10:10:56.771Z</time>
      </trkpt>
      <trkpt lat="47.8607" lon="7.16154">
        <ele>944</ele>
        <time>2017-10-15T10:11:52.771Z</time>
      </trkpt>
      <trkpt lat="47.86072" lon="7.1616">
        <ele>945</ele>
        <time>2017-10-15T10:12:52.775Z</time>
      </trkpt>
      <trkpt lat="47.86075" lon="7.16172">
        <ele>945</ele>
        <time>2017-10-15T10:13:52.775Z</time>
      </trkpt>
      <trkpt lat="47.86073" lon="7.16171">
        <ele>944</ele>
        <time>2017-10-15T10:14:53.773Z</time>
      </trkpt>
      <trkpt lat="47.86072" lon="7.16171">
        <ele>944</ele>
        <time>2017-10-15T10:15:53.78Z</time>
      </trkpt>
      <trkpt lat="47.86072" lon="7.16171">
        <ele>944</ele>
        <time>2017-10-15T10:16:54.786Z</time>
      </trkpt>
      <trkpt lat="47.86072" lon="7.16171">
        <ele>944</ele>
        <time>2017-10-15T10:17:55.78Z</time>
      </trkpt>
      <trkpt lat="47.86072" lon="7.16171">
        <ele>944</ele>
        <time>2017-10-15T10:18:55.783Z</time>
      </trkpt>
      <trkpt lat="47.86072" lon="7.16171">
        <ele>944</ele>
        <time>2017-10-15T10:19:56.775Z</time>
      </trkpt>
      <trkpt lat="47.86072" lon="7.16171">
        <ele>944</ele>
        <time>2017-10-15T10:20:56.78Z</time>
      </trkpt>
      <trkpt lat="47.86072" lon="7.16171">
        <ele>944</ele>
        <time>2017-10-15T10:21:57.778Z</time>
      </trkpt>
      <trkpt lat="47.86072" lon="7.16171">
        <ele>944</ele>
        <time>2017-10-15T10:22:57.779Z</time>
      </trkpt>
      <trkpt lat="47.86072" lon="7.16171">
        <ele>944</ele>
        <time>2017-10-15T10:23:58.775Z</time>
      </trkpt>
      <trkpt lat="47.86072" lon="7.16171">
        <ele>944</ele>
        <time>2017-10-15T10:24:58.779Z</time>
      </trkpt>
      <trkpt lat="47.86072" lon="7.16171">
        <ele>944</ele>
        <time>2017-10-15T10:25:58.781Z</time>
      </trkpt>
      <trkpt lat="47.86072" lon="7.16171">
        <ele>944</ele>
        <time>2017-10-15T10:26:58.781Z</time>
      </trkpt>
      <trkpt lat="47.86072" lon="7.16171">
        <ele>944</ele>
        <time>2017-10-15T10:27:59.778Z</time>
      </trkpt>
      <trkpt lat="47.86072" lon="7.16171">
        <ele>944</ele>
        <time>2017-10-15T10:28:59.786Z</time>
      </trkpt>
      <trkpt lat="47.86072" lon="7.16171">
        <ele>944</ele>
        <time>2017-10-15T10:30:00.793Z</time>
      </trkpt>
      <trkpt lat="47.86072" lon="7.16171">
        <ele>944</ele>
        <time>2017-10-15T10:31:01.776Z</time>
      </trkpt>
      <trkpt lat="47.86072" lon="7.16171">
        <ele>944</ele>
        <time>2017-10-15T10:32:01.78Z</time>
      </trkpt>
      <trkpt lat="47.86072" lon="7.16171">
        <ele>944</ele>
        <time>2017-10-15T10:33:02.779Z</time>
      </trkpt>
      <trkpt lat="47.86072" lon="7.16171">
        <ele>944</ele>
        <time>2017-10-15T10:34:02.779Z</time>
      </trkpt>
      <trkpt lat="47.86072" lon="7.16171">
        <ele>944</ele>
        <time>2017-10-15T10:35:02.781Z</time>
      </trkpt>
      <trkpt lat="47.86072" lon="7.16171">
        <ele>944</ele>
        <time>2017-10-15T10:36:02.784Z</time>
      </trkpt>
      <trkpt lat="47.86072" lon="7.16171">
        <ele>944</ele>
        <time>2017-10-15T10:37:03.78Z</time>
      </trkpt>
      <trkpt lat="47.86072" lon="7.16171">
        <ele>944</ele>
        <time>2017-10-15T10:38:03.781Z</time>
      </trkpt>
      <trkpt lat="47.86072" lon="7.16171">
        <ele>944</ele>
        <time>2017-10-15T10:39:04.78Z</time>
      </trkpt>
      <trkpt lat="47.86072" lon="7.16171">
        <ele>944</ele>
        <time>2017-10-15T10:40:04.78Z</time>
      </trkpt>
      <trkpt lat="47.86072" lon="7.16171">
        <ele>944</ele>
        <time>2017-10-15T10:41:05.778Z</time>
      </trkpt>
      <trkpt lat="47.86072" lon="7.16171">
        <ele>944</ele>
        <time>2017-10-15T10:42:05.781Z</time>
      </trkpt>
      <trkpt lat="47.86072" lon="7.16171">
        <ele>944</ele>
        <time>2017-10-15T10:43:06.775Z</time>
      </trkpt>
      <trkpt lat="47.86072" lon="7.16171">
        <ele>944</ele>
        <time>2017-10-15T10:44:07.78Z</time>
      </trkpt>
      <trkpt lat="47.86072" lon="7.16171">
        <ele>944</ele>
        <time>2017-10-15T10:45:08.775Z</time>
      </trkpt>
      <trkpt lat="47.86072" lon="7.16171">
        <ele>944</ele>
        <time>2017-10-15T10:46:08.779Z</time>
      </trkpt>
      <trkpt lat="47.86072" lon="7.16171">
        <ele>944</ele>
        <time>2017-10-15T10:47:08.78Z</time>
      </trkpt>
      <trkpt lat="47.86073" lon="7.16171">
        <ele>944</ele>
        <time>2017-10-15T10:48:08.784Z</time>
      </trkpt>
      <trkpt lat="47.86073" lon="7.16171">
        <ele>944</ele>
        <time>2017-10-15T10:49:09.773Z</time>
      </trkpt>
      <trkpt lat="47.86073" lon="7.16171">
        <ele>944</ele>
        <time>2017-10-15T10:50:09.773Z</time>
      </trkpt>
      <trkpt lat="47.86073" lon="7.16171">
        <ele>944</ele>
        <time>2017-10-15T10:51:09.773Z</time>
      </trkpt>
      <trkpt lat="47.86073" lon="7.16171">
        <ele>944</ele>
        <time>2017-10-15T10:52:09.785Z</time>
      </trkpt>
      <trkpt lat="47.86073" lon="7.16171">
        <ele>944</ele>
        <time>2017-10-15T10:53:10.775Z</time>
      </trkpt>
      <trkpt lat="47.86073" lon="7.16171">
        <ele>944</ele>
        <time>2017-10-15T10:54:10.775Z</time>
      </trkpt>
      <trkpt lat="47.86073" lon="7.16171">
        <ele>944</ele>
        <time>2017-10-15T10:55:10.775Z</time>
      </trkpt>
      <trkpt lat="47.86073" lon="7.16171">
        <ele>944</ele>
        <time>2017-10-15T10:56:10.776Z</time>
      </trkpt>
      <trkpt lat="47.86073" lon="7.16171">
        <ele>944</ele>
        <time>2017-10-15T10:57:10.776Z</time>
      </trkpt>
      <trkpt lat="47.86073" lon="7.16171">
        <ele>944</ele>
        <time>2017-10-15T10:58:11.774Z</time>
      </trkpt>
      <trkpt lat="47.86073" lon="7.16171">
        <ele>944</ele>
        <time>2017-10-15T10:59:11.775Z</time>
      </trkpt>
      <trkpt lat="47.86073" lon="7.16171">
        <ele>944</ele>
        <time>2017-10-15T11:00:11.781Z</time>
      </trkpt>
      <trkpt lat="47.86073" lon="7.16171">
        <ele>944</ele>
        <time>2017-10-15T11:01:12.775Z</time>
      </trkpt>
      <trkpt lat="47.86073" lon="7.16171">
        <ele>944</ele>
        <time>2017-10-15T11:02:12.779Z</time>
      </trkpt>
      <trkpt lat="47.86076" lon="7.16166">
        <ele>946</ele>
        <time>2017-10-15T11:03:12.779Z</time>
      </trkpt>
      <trkpt lat="47.86075" lon="7.16168">
        <ele>945</ele>
        <time>2017-10-15T11:04:13.78Z</time>
      </trkpt>
      <trkpt lat="47.86074" lon="7.1617">
        <ele>945</ele>
        <time>2017-10-15T11:05:13.785Z</time>
      </trkpt>
      <trkpt lat="47.86072" lon="7.16171">
        <ele>944</ele>
        <time>2017-10-15T11:06:14.776Z</time>
      </trkpt>
      <trkpt lat="47.86076" lon="7.1619">
        <ele>943</ele>
        <time>2017-10-15T11:06:51.778Z</time>
      </trkpt>
      <trkpt lat="47.86087" lon="7.16218">
        <ele>941</ele>
        <time>2017-10-15T11:07:12.775Z</time>
      </trkpt>
      <trkpt lat="47.86086" lon="7.16251">
        <ele>940</ele>
        <time>2017-10-15T11:08:12.775Z</time>
      </trkpt>
      <trkpt lat="47.86102" lon="7.16295">
        <ele>930</ele>
        <time>2017-10-15T11:09:13.789Z</time>
      </trkpt>
      <trkpt lat="47.86102" lon="7.16309">
        <ele>929</ele>
        <time>2017-10-15T11:10:14.37Z</time>
      </trkpt>
      <trkpt lat="47.86102" lon="7.16309">
        <ele>929</ele>
        <time>2017-10-15T11:11:14.47Z</time>
      </trkpt>
      <trkpt lat="47.86102" lon="7.16309">
        <ele>929</ele>
        <time>2017-10-15T11:12:14.589Z</time>
      </trkpt>
      <trkpt lat="47.86102" lon="7.16309">
        <ele>929</ele>
        <time>2017-10-15T11:13:14.72Z</time>
      </trkpt>
      <trkpt lat="47.86102" lon="7.16309">
        <ele>929</ele>
        <time>2017-10-15T11:14:14.838Z</time>
      </trkpt>
      <trkpt lat="47.86102" lon="7.16309">
        <ele>929</ele>
        <time>2017-10-15T11:15:14.93Z</time>
      </trkpt>
      <trkpt lat="47.85941" lon="7.16637">
        <ele>885</ele>
        <time>2017-10-15T11:16:06.768Z</time>
      </trkpt>
      <trkpt lat="47.85941" lon="7.16639">
        <ele>885</ele>
        <time>2017-10-15T11:17:06.779Z</time>
      </trkpt>
      <trkpt lat="47.85925" lon="7.16645">
        <ele>885</ele>
        <time>2017-10-15T11:17:55.776Z</time>
      </trkpt>
      <trkpt lat="47.85915" lon="7.1666">
        <ele>884</ele>
        <time>2017-10-15T11:18:12.78Z</time>
      </trkpt>
      <trkpt lat="47.859" lon="7.16698">
        <ele>875</ele>
        <time>2017-10-15T11:19:13.775Z</time>
      </trkpt>
      <trkpt lat="47.85888" lon="7.16708">
        <ele>873</ele>
        <time>2017-10-15T11:19:32.778Z</time>
      </trkpt>
      <trkpt lat="47.85877" lon="7.16723">
        <ele>872</ele>
        <time>2017-10-15T11:19:45.774Z</time>
      </trkpt>
      <trkpt lat="47.85875" lon="7.16743">
        <ele>872</ele>
        <time>2017-10-15T11:19:58.776Z</time>
      </trkpt>
      <trkpt lat="47.8587" lon="7.16762">
        <ele>865</ele>
        <time>2017-10-15T11:20:12.783Z</time>
      </trkpt>
      <trkpt lat="47.85861" lon="7.16787">
        <ele>864</ele>
        <time>2017-10-15T11:20:34.78Z</time>
      </trkpt>
      <trkpt lat="47.85854" lon="7.16809">
        <ele>862</ele>
        <time>2017-10-15T11:20:50.778Z</time>
      </trkpt>
      <trkpt lat="47.85844" lon="7.16872">
        <ele>848</ele>
        <time>2017-10-15T11:21:51.774Z</time>
      </trkpt>
      <trkpt lat="47.8584" lon="7.16931">
        <ele>834</ele>
        <time>2017-10-15T11:22:52.77Z</time>
      </trkpt>
      <trkpt lat="47.85845" lon="7.16952">
        <ele>827</ele>
        <time>2017-10-15T11:23:07.778Z</time>
      </trkpt>
      <trkpt lat="47.85848" lon="7.16964">
        <ele>825</ele>
        <time>2017-10-15T11:24:07.778Z</time>
      </trkpt>
      <trkpt lat="47.85847" lon="7.16967">
        <ele>825</ele>
        <time>2017-10-15T11:25:08.774Z</time>
      </trkpt>
      <trkpt lat="47.85851" lon="7.16961">
        <ele>825</ele>
        <time>2017-10-15T11:26:08.78Z</time>
      </trkpt>
      <trkpt lat="47.85849" lon="7.16958">
        <ele>826</ele>
        <time>2017-10-15T11:27:08.781Z</time>
      </trkpt>
      <trkpt lat="47.85861" lon="7.16935">
        <ele>828</ele>
        <time>2017-10-15T11:27:50.775Z</time>
      </trkpt>
      <trkpt lat="47.85896" lon="7.16916">
        <ele>835</ele>
        <time>2017-10-15T11:28:51.771Z</time>
      </trkpt>
      <trkpt lat="47.85896" lon="7.16937">
        <ele>823</ele>
        <time>2017-10-15T11:29:20.775Z</time>
      </trkpt>
      <trkpt lat="47.85879" lon="7.17001">
        <ele>806</ele>
        <time>2017-10-15T11:30:09.774Z</time>
      </trkpt>
      <trkpt lat="47.85863" lon="7.17046">
        <ele>803</ele>
        <time>2017-10-15T11:30:42.78Z</time>
      </trkpt>
      <trkpt lat="47.85867" lon="7.17101">
        <ele>788</ele>
        <time>2017-10-15T11:31:42.783Z</time>
      </trkpt>
      <trkpt lat="47.85871" lon="7.17122">
        <ele>786</ele>
        <time>2017-10-15T11:32:43.78Z</time>
      </trkpt>
      <trkpt lat="47.8589" lon="7.17184">
        <ele>773</ele>
        <time>2017-10-15T11:33:21.783Z</time>
      </trkpt>
      <trkpt lat="47.85886" lon="7.17219">
        <ele>770</ele>
        <time>2017-10-15T11:33:41.78Z</time>
      </trkpt>
      <trkpt lat="47.85895" lon="7.17238">
        <ele>768</ele>
        <time>2017-10-15T11:33:53.775Z</time>
      </trkpt>
      <trkpt lat="47.85877" lon="7.17304">
        <ele>757</ele>
        <time>2017-10-15T11:34:42.783Z</time>
      </trkpt>
      <trkpt lat="47.85875" lon="7.17328">
        <ele>756</ele>
        <time>2017-10-15T11:34:56.781Z</time>
      </trkpt>
      <trkpt lat="47.85876" lon="7.17397">
        <ele>742</ele>
        <time>2017-10-15T11:35:44.779Z</time>
      </trkpt>
      <trkpt lat="47.85864" lon="7.17462">
        <ele>726</ele>
        <time>2017-10-15T11:36:42.784Z</time>
      </trkpt>
      <trkpt lat="47.85864" lon="7.1753">
        <ele>707</ele>
        <time>2017-10-15T11:37:39.78Z</time>
      </trkpt>
      <trkpt lat="47.85897" lon="7.17578">
        <ele>698</ele>
        <time>2017-10-15T11:38:34.78Z</time>
      </trkpt>
      <trkpt lat="47.85913" lon="7.17607">
        <ele>683</ele>
        <time>2017-10-15T11:39:05.783Z</time>
      </trkpt>
      <trkpt lat="47.85912" lon="7.17628">
        <ele>677</ele>
        <time>2017-10-15T11:39:14.78Z</time>
      </trkpt>
      <trkpt lat="47.8591" lon="7.17649">
        <ele>672</ele>
        <time>2017-10-15T11:39:27.776Z</time>
      </trkpt>
      <trkpt lat="47.85895" lon="7.17656">
        <ele>673</ele>
        <time>2017-10-15T11:40:27.796Z</time>
      </trkpt>
      <trkpt lat="47.85884" lon="7.17656">
        <ele>674</ele>
        <time>2017-10-15T11:41:28.773Z</time>
      </trkpt>
      <trkpt lat="47.85866" lon="7.17654">
        <ele>674</ele>
        <time>2017-10-15T11:41:46.773Z</time>
      </trkpt>
      <trkpt lat="47.85847" lon="7.1765">
        <ele>673</ele>
        <time>2017-10-15T11:42:03.773Z</time>
      </trkpt>
      <trkpt lat="47.85834" lon="7.17651">
        <ele>672</ele>
        <time>2017-10-15T11:44:02.791Z</time>
      </trkpt>
      <trkpt lat="47.85834" lon="7.17651">
        <ele>672</ele>
        <time>2017-10-15T11:46:16.775Z</time>
      </trkpt>
      <trkpt lat="47.85837" lon="7.17653">
        <ele>671</ele>
        <time>2017-10-15T11:47:16.78Z</time>
      </trkpt>
      <trkpt lat="47.85851" lon="7.17661">
        <ele>672</ele>
        <time>2017-10-15T11:47:30.78Z</time>
      </trkpt>
      <trkpt lat="47.85871" lon="7.17676">
        <ele>655</ele>
        <time>2017-10-15T11:47:51.776Z</time>
      </trkpt>
      <trkpt lat="47.85885" lon="7.1768">
        <ele>655</ele>
        <time>2017-10-15T11:48:00.775Z</time>
      </trkpt>
      <trkpt lat="47.85898" lon="7.17672">
        <ele>657</ele>
        <time>2017-10-15T11:48:13.77Z</time>
      </trkpt>
      <trkpt lat="47.85941" lon="7.17651">
        <ele>663</ele>
        <time>2017-10-15T11:48:50.771Z</time>
      </trkpt>
      <trkpt lat="47.85957" lon="7.17631">
        <ele>662</ele>
        <time>2017-10-15T11:49:04.77Z</time>
      </trkpt>
      <trkpt lat="47.85971" lon="7.1762">
        <ele>661</ele>
        <time>2017-10-15T11:49:17.77Z</time>
      </trkpt>
      <trkpt lat="47.86006" lon="7.17579">
        <ele>655</ele>
        <time>2017-10-15T11:49:50.775Z</time>
      </trkpt>
      <trkpt lat="47.86036" lon="7.1755">
        <ele>655</ele>
        <time>2017-10-15T11:50:16.779Z</time>
      </trkpt>
      <trkpt lat="47.86053" lon="7.17528">
        <ele>655</ele>
        <time>2017-10-15T11:50:40.774Z</time>
      </trkpt>
      <trkpt lat="47.86085" lon="7.1749">
        <ele>652</ele>
        <time>2017-10-15T11:51:40.778Z</time>
      </trkpt>
      <trkpt lat="47.86125" lon="7.17447">
        <ele>653</ele>
        <time>2017-10-15T11:52:11.775Z</time>
      </trkpt>
      <trkpt lat="47.8614" lon="7.17432">
        <ele>653</ele>
        <time>2017-10-15T11:52:31.774Z</time>
      </trkpt>
      <trkpt lat="47.86161" lon="7.17414">
        <ele>656</ele>
        <time>2017-10-15T11:52:46.77Z</time>
      </trkpt>
      <trkpt lat="47.86197" lon="7.17418">
        <ele>645</ele>
        <time>2017-10-15T11:53:24.77Z</time>
      </trkpt>
      <trkpt lat="47.8622" lon="7.17428">
        <ele>644</ele>
        <time>2017-10-15T11:53:42.778Z</time>
      </trkpt>
      <trkpt lat="47.86238" lon="7.17452">
        <ele>642</ele>
        <time>2017-10-15T11:54:06.775Z</time>
      </trkpt>
      <trkpt lat="47.86248" lon="7.17475">
        <ele>637</ele>
        <time>2017-10-15T11:54:19.775Z</time>
      </trkpt>
      <trkpt lat="47.8628" lon="7.17572">
        <ele>626</ele>
        <time>2017-10-15T11:55:18.775Z</time>
      </trkpt>
      <trkpt lat="47.86289" lon="7.17591">
        <ele>619</ele>
        <time>2017-10-15T11:55:29.773Z</time>
      </trkpt>
      <trkpt lat="47.86292" lon="7.17613">
        <ele>618</ele>
        <time>2017-10-15T11:55:40.774Z</time>
      </trkpt>
      <trkpt lat="47.86302" lon="7.17647">
        <ele>617</ele>
        <time>2017-10-15T11:55:58.775Z</time>
      </trkpt>
      <trkpt lat="47.86305" lon="7.17667">
        <ele>608</ele>
        <time>2017-10-15T11:56:10.774Z</time>
      </trkpt>
      <trkpt lat="47.86311" lon="7.17702">
        <ele>605</ele>
        <time>2017-10-15T11:56:30.775Z</time>
      </trkpt>
      <trkpt lat="47.86326" lon="7.17734">
        <ele>604</ele>
        <time>2017-10-15T11:56:54.78Z</time>
      </trkpt>
      <trkpt lat="47.86339" lon="7.17746">
        <ele>608</ele>
        <time>2017-10-15T11:57:05.776Z</time>
      </trkpt>
      <trkpt lat="47.86347" lon="7.17763">
        <ele>601</ele>
        <time>2017-10-15T11:57:17.769Z</time>
      </trkpt>
      <trkpt lat="47.86359" lon="7.17774">
        <ele>599</ele>
        <time>2017-10-15T11:57:27.771Z</time>
      </trkpt>
      <trkpt lat="47.86371" lon="7.17785">
        <ele>597</ele>
        <time>2017-10-15T11:57:40.775Z</time>
      </trkpt>
      <trkpt lat="47.86383" lon="7.178">
        <ele>595</ele>
        <time>2017-10-15T11:57:49.77Z</time>
      </trkpt>
      <trkpt lat="47.86397" lon="7.17797">
        <ele>595</ele>
        <time>2017-10-15T11:58:00.771Z</time>
      </trkpt>
      <trkpt lat="47.86442" lon="7.17783">
        <ele>586</ele>
        <time>2017-10-15T11:58:37.776Z</time>
      </trkpt>
      <trkpt lat="47.86439" lon="7.17778">
        <ele>587</ele>
        <time>2017-10-15T11:59:38.778Z</time>
      </trkpt>
      <trkpt lat="47.86449" lon="7.17763">
        <ele>586</ele>
        <time>2017-10-15T11:59:58.77Z</time>
      </trkpt>
      <trkpt lat="47.86462" lon="7.17731">
        <ele>594</ele>
        <time>2017-10-15T12:00:19.77Z</time>
      </trkpt>
      <trkpt lat="47.86466" lon="7.17711">
        <ele>595</ele>
        <time>2017-10-15T12:00:28.77Z</time>
      </trkpt>
      <trkpt lat="47.8648" lon="7.17684">
        <ele>593</ele>
        <time>2017-10-15T12:00:44.778Z</time>
      </trkpt>
      <trkpt lat="47.86486" lon="7.17656">
        <ele>598</ele>
        <time>2017-10-15T12:01:05.77Z</time>
      </trkpt>
      <trkpt lat="47.86496" lon="7.17636">
        <ele>601</ele>
        <time>2017-10-15T12:01:16.769Z</time>
      </trkpt>
      <trkpt lat="47.86509" lon="7.17596">
        <ele>588</ele>
        <time>2017-10-15T12:01:39.77Z</time>
      </trkpt>
      <trkpt lat="47.86519" lon="7.17569">
        <ele>588</ele>
        <time>2017-10-15T12:01:54.77Z</time>
      </trkpt>
      <trkpt lat="47.86523" lon="7.17549">
        <ele>586</ele>
        <time>2017-10-15T12:02:07.77Z</time>
      </trkpt>
      <trkpt lat="47.86519" lon="7.17508">
        <ele>590</ele>
        <time>2017-10-15T12:02:33.774Z</time>
      </trkpt>
      <trkpt lat="47.86516" lon="7.17479">
        <ele>587</ele>
        <time>2017-10-15T12:02:51.773Z</time>
      </trkpt>
      <trkpt lat="47.8651" lon="7.17457">
        <ele>585</ele>
        <time>2017-10-15T12:03:02.778Z</time>
      </trkpt>
      <trkpt lat="47.86498" lon="7.17413">
        <ele>597</ele>
        <time>2017-10-15T12:03:28.77Z</time>
      </trkpt>
      <trkpt lat="47.8649" lon="7.17392">
        <ele>606</ele>
        <time>2017-10-15T12:03:41.77Z</time>
      </trkpt>
      <trkpt lat="47.86478" lon="7.17343">
        <ele>608</ele>
        <time>2017-10-15T12:04:12.771Z</time>
      </trkpt>
      <trkpt lat="47.86486" lon="7.17309">
        <ele>611</ele>
        <time>2017-10-15T12:04:29.773Z</time>
      </trkpt>
      <trkpt lat="47.86488" lon="7.17287">
        <ele>613</ele>
        <time>2017-10-15T12:04:43.771Z</time>
      </trkpt>
      <trkpt lat="47.86495" lon="7.17267">
        <ele>610</ele>
        <time>2017-10-15T12:04:54.769Z</time>
      </trkpt>
      <trkpt lat="47.86504" lon="7.17241">
        <ele>601</ele>
        <time>2017-10-15T12:05:06.77Z</time>
      </trkpt>
      <trkpt lat="47.86515" lon="7.17225">
        <ele>600</ele>
        <time>2017-10-15T12:05:13.77Z</time>
      </trkpt>
      <trkpt lat="47.86543" lon="7.17169">
        <ele>602</ele>
        <time>2017-10-15T12:05:54.775Z</time>
      </trkpt>
      <trkpt lat="47.86553" lon="7.17156">
        <ele>614</ele>
        <time>2017-10-15T12:06:01.769Z</time>
      </trkpt>
      <trkpt lat="47.86567" lon="7.17152">
        <ele>610</ele>
        <time>2017-10-15T12:06:13.774Z</time>
      </trkpt>
      <trkpt lat="47.86582" lon="7.17163">
        <ele>601</ele>
        <time>2017-10-15T12:06:19.775Z</time>
      </trkpt>
      <trkpt lat="47.86592" lon="7.17178">
        <ele>595</ele>
        <time>2017-10-15T12:06:31.774Z</time>
      </trkpt>
      <trkpt lat="47.86605" lon="7.17208">
        <ele>589</ele>
        <time>2017-10-15T12:06:52.77Z</time>
      </trkpt>
      <trkpt lat="47.86639" lon="7.17257">
        <ele>570</ele>
        <time>2017-10-15T12:07:29.768Z</time>
      </trkpt>
      <trkpt lat="47.8665" lon="7.17278">
        <ele>569</ele>
        <time>2017-10-15T12:07:42.768Z</time>
      </trkpt>
      <trkpt lat="47.86669" lon="7.17297">
        <ele>571</ele>
        <time>2017-10-15T12:07:55.769Z</time>
      </trkpt>
      <trkpt lat="47.86686" lon="7.17295">
        <ele>572</ele>
        <time>2017-10-15T12:08:05.768Z</time>
      </trkpt>
      <trkpt lat="47.86701" lon="7.17287">
        <ele>574</ele>
        <time>2017-10-15T12:08:19.768Z</time>
      </trkpt>
      <trkpt lat="47.86725" lon="7.17283">
        <ele>577</ele>
        <time>2017-10-15T12:08:27.769Z</time>
      </trkpt>
      <trkpt lat="47.86739" lon="7.17291">
        <ele>576</ele>
        <time>2017-10-15T12:08:41.768Z</time>
      </trkpt>
      <trkpt lat="47.86764" lon="7.17308">
        <ele>573</ele>
        <time>2017-10-15T12:08:57.77Z</time>
      </trkpt>
      <trkpt lat="47.86769" lon="7.17328">
        <ele>571</ele>
        <time>2017-10-15T12:09:13.776Z</time>
      </trkpt>
      <trkpt lat="47.86781" lon="7.17341">
        <ele>559</ele>
        <time>2017-10-15T12:09:24.774Z</time>
      </trkpt>
      <trkpt lat="47.86788" lon="7.17358">
        <ele>557</ele>
        <time>2017-10-15T12:09:33.771Z</time>
      </trkpt>
      <trkpt lat="47.86801" lon="7.17367">
        <ele>556</ele>
        <time>2017-10-15T12:09:41.771Z</time>
      </trkpt>
      <trkpt lat="47.8682" lon="7.1738">
        <ele>554</ele>
        <time>2017-10-15T12:09:55.774Z</time>
      </trkpt>
      <trkpt lat="47.86834" lon="7.17373">
        <ele>545</ele>
        <time>2017-10-15T12:10:06.77Z</time>
      </trkpt>
      <trkpt lat="47.86843" lon="7.17358">
        <ele>547</ele>
        <time>2017-10-15T12:10:17.773Z</time>
      </trkpt>
      <trkpt lat="47.86857" lon="7.17331">
        <ele>553</ele>
        <time>2017-10-15T12:10:37.773Z</time>
      </trkpt>
      <trkpt lat="47.86865" lon="7.17298">
        <ele>551</ele>
        <time>2017-10-15T12:10:51.774Z</time>
      </trkpt>
      <trkpt lat="47.86875" lon="7.17277">
        <ele>550</ele>
        <time>2017-10-15T12:10:59.774Z</time>
      </trkpt>
      <trkpt lat="47.8687" lon="7.1725">
        <ele>553</ele>
        <time>2017-10-15T12:11:15.771Z</time>
      </trkpt>
      <trkpt lat="47.86866" lon="7.17221">
        <ele>557</ele>
        <time>2017-10-15T12:11:36.78Z</time>
      </trkpt>
      <trkpt lat="47.86864" lon="7.172">
        <ele>557</ele>
        <time>2017-10-15T12:11:43.775Z</time>
      </trkpt>
      <trkpt lat="47.86859" lon="7.17181">
        <ele>560</ele>
        <time>2017-10-15T12:11:54.771Z</time>
      </trkpt>
      <trkpt lat="47.86861" lon="7.17161">
        <ele>563</ele>
        <time>2017-10-15T12:12:03.771Z</time>
      </trkpt>
      <trkpt lat="47.86854" lon="7.17142">
        <ele>564</ele>
        <time>2017-10-15T12:12:14.77Z</time>
      </trkpt>
      <trkpt lat="47.8686" lon="7.17121">
        <ele>563</ele>
        <time>2017-10-15T12:12:27.77Z</time>
      </trkpt>
      <trkpt lat="47.86872" lon="7.17108">
        <ele>561</ele>
        <time>2017-10-15T12:12:33.769Z</time>
      </trkpt>
      <trkpt lat="47.86903" lon="7.17051">
        <ele>559</ele>
        <time>2017-10-15T12:13:07.77Z</time>
      </trkpt>
      <trkpt lat="47.86904" lon="7.17027">
        <ele>560</ele>
        <time>2017-10-15T12:13:21.771Z</time>
      </trkpt>
      <trkpt lat="47.86908" lon="7.16982">
        <ele>558</ele>
        <time>2017-10-15T12:13:45.773Z</time>
      </trkpt>
      <trkpt lat="47.86918" lon="7.16958">
        <ele>536</ele>
        <time>2017-10-15T12:13:53.771Z</time>
      </trkpt>
      <trkpt lat="47.86913" lon="7.16938">
        <ele>557</ele>
        <time>2017-10-15T12:14:04.771Z</time>
      </trkpt>
      <trkpt lat="47.86915" lon="7.16904">
        <ele>553</ele>
        <time>2017-10-15T12:14:19.773Z</time>
      </trkpt>
      <trkpt lat="47.86905" lon="7.16889">
        <ele>557</ele>
        <time>2017-10-15T12:14:28.774Z</time>
      </trkpt>
      <trkpt lat="47.86903" lon="7.16863">
        <ele>556</ele>
        <time>2017-10-15T12:14:41.774Z</time>
      </trkpt>
      <trkpt lat="47.86891" lon="7.16822">
        <ele>556</ele>
        <time>2017-10-15T12:15:02.773Z</time>
      </trkpt>
      <trkpt lat="47.86887" lon="7.16802">
        <ele>559</ele>
        <time>2017-10-15T12:15:11.771Z</time>
      </trkpt>
      <trkpt lat="47.86894" lon="7.16783">
        <ele>558</ele>
        <time>2017-10-15T12:15:30.773Z</time>
      </trkpt>
      <trkpt lat="47.86937" lon="7.1675">
        <ele>545</ele>
        <time>2017-10-15T12:16:02.771Z</time>
      </trkpt>
      <trkpt lat="47.86971" lon="7.16718">
        <ele>542</ele>
        <time>2017-10-15T12:17:02.773Z</time>
      </trkpt>
      <trkpt lat="47.86964" lon="7.16728">
        <ele>542</ele>
        <time>2017-10-15T12:18:02.774Z</time>
      </trkpt>
      <trkpt lat="47.86965" lon="7.1673">
        <ele>542</ele>
        <time>2017-10-15T12:19:02.776Z</time>
      </trkpt>
      <trkpt lat="47.86963" lon="7.16732">
        <ele>542</ele>
        <time>2017-10-15T12:20:02.785Z</time>
      </trkpt>
      <trkpt lat="47.8698" lon="7.16739">
        <ele>537</ele>
        <time>2017-10-15T12:21:01.773Z</time>
      </trkpt>
      <trkpt lat="47.86993" lon="7.16729">
        <ele>536</ele>
        <time>2017-10-15T12:21:12.771Z</time>
      </trkpt>
      <trkpt lat="47.87005" lon="7.16713">
        <ele>523</ele>
        <time>2017-10-15T12:21:23.773Z</time>
      </trkpt>
      <trkpt lat="47.87005" lon="7.16692">
        <ele>526</ele>
        <time>2017-10-15T12:21:38.771Z</time>
      </trkpt>
      <trkpt lat="47.87001" lon="7.16672">
        <ele>534</ele>
        <time>2017-10-15T12:21:51.779Z</time>
      </trkpt>
      <trkpt lat="47.86989" lon="7.16659">
        <ele>545</ele>
        <time>2017-10-15T12:22:00.77Z</time>
      </trkpt>
      <trkpt lat="47.86999" lon="7.16642">
        <ele>548</ele>
        <time>2017-10-15T12:22:05.773Z</time>
      </trkpt>
      <trkpt lat="47.87008" lon="7.16604">
        <ele>531</ele>
        <time>2017-10-15T12:22:24.773Z</time>
      </trkpt>
      <trkpt lat="47.87005" lon="7.16549">
        <ele>531</ele>
        <time>2017-10-15T12:22:51.77Z</time>
      </trkpt>
      <trkpt lat="47.86995" lon="7.16536">
        <ele>552</ele>
        <time>2017-10-15T12:23:00.771Z</time>
      </trkpt>
      <trkpt lat="47.86986" lon="7.16494">
        <ele>547</ele>
        <time>2017-10-15T12:23:25.773Z</time>
      </trkpt>
      <trkpt lat="47.86975" lon="7.16479">
        <ele>551</ele>
        <time>2017-10-15T12:23:35.771Z</time>
      </trkpt>
      <trkpt lat="47.8697" lon="7.16458">
        <ele>551</ele>
        <time>2017-10-15T12:23:47.773Z</time>
      </trkpt>
      <trkpt lat="47.8696" lon="7.16441">
        <ele>552</ele>
        <time>2017-10-15T12:23:57.776Z</time>
      </trkpt>
      <trkpt lat="47.86957" lon="7.16419">
        <ele>552</ele>
        <time>2017-10-15T12:24:08.778Z</time>
      </trkpt>
      <trkpt lat="47.86944" lon="7.16382">
        <ele>550</ele>
        <time>2017-10-15T12:24:28.775Z</time>
      </trkpt>
      <trkpt lat="47.86942" lon="7.16361">
        <ele>550</ele>
        <time>2017-10-15T12:24:44.775Z</time>
      </trkpt>
      <trkpt lat="47.86929" lon="7.16349">
        <ele>552</ele>
        <time>2017-10-15T12:24:51.775Z</time>
      </trkpt>
      <trkpt lat="47.86923" lon="7.16329">
        <ele>556</ele>
        <time>2017-10-15T12:25:04.771Z</time>
      </trkpt>
      <trkpt lat="47.86907" lon="7.16306">
        <ele>570</ele>
        <time>2017-10-15T12:25:18.771Z</time>
      </trkpt>
      <trkpt lat="47.86893" lon="7.16304">
        <ele>573</ele>
        <time>2017-10-15T12:25:26.774Z</time>
      </trkpt>
      <trkpt lat="47.86915" lon="7.16286">
        <ele>572</ele>
        <time>2017-10-15T12:25:32.774Z</time>
      </trkpt>
      <trkpt lat="47.86932" lon="7.16273">
        <ele>559</ele>
        <time>2017-10-15T12:25:48.771Z</time>
      </trkpt>
      <trkpt lat="47.86981" lon="7.16268">
        <ele>555</ele>
        <time>2017-10-15T12:26:20.771Z</time>
      </trkpt>
      <trkpt lat="47.86989" lon="7.16252">
        <ele>556</ele>
        <time>2017-10-15T12:26:32.775Z</time>
      </trkpt>
      <trkpt lat="47.86995" lon="7.16233">
        <ele>565</ele>
        <time>2017-10-15T12:26:46.775Z</time>
      </trkpt>
      <trkpt lat="47.86995" lon="7.16213">
        <ele>569</ele>
        <time>2017-10-15T12:26:57.77Z</time>
      </trkpt>
      <trkpt lat="47.87005" lon="7.16195">
        <ele>562</ele>
        <time>2017-10-15T12:27:06.775Z</time>
      </trkpt>
      <trkpt lat="47.8702" lon="7.16172">
        <ele>564</ele>
        <time>2017-10-15T12:27:22.779Z</time>
      </trkpt>
      <trkpt lat="47.87034" lon="7.16168">
        <ele>560</ele>
        <time>2017-10-15T12:27:29.771Z</time>
      </trkpt>
      <trkpt lat="47.8705" lon="7.16159">
        <ele>566</ele>
        <time>2017-10-15T12:27:43.77Z</time>
      </trkpt>
      <trkpt lat="47.87062" lon="7.16146">
        <ele>564</ele>
        <time>2017-10-15T12:27:57.778Z</time>
      </trkpt>
      <trkpt lat="47.87063" lon="7.16125">
        <ele>566</ele>
        <time>2017-10-15T12:28:06.773Z</time>
      </trkpt>
      <trkpt lat="47.87057" lon="7.16106">
        <ele>568</ele>
        <time>2017-10-15T12:28:20.774Z</time>
      </trkpt>
      <trkpt lat="47.87069" lon="7.1609">
        <ele>565</ele>
        <time>2017-10-15T12:28:23.774Z</time>
      </trkpt>
      <trkpt lat="47.87069" lon="7.1607">
        <ele>567</ele>
        <time>2017-10-15T12:28:32.775Z</time>
      </trkpt>
      <trkpt lat="47.87067" lon="7.16035">
        <ele>569</ele>
        <time>2017-10-15T12:28:49.775Z</time>
      </trkpt>
      <trkpt lat="47.87059" lon="7.16008">
        <ele>568</ele>
        <time>2017-10-15T12:29:05.783Z</time>
      </trkpt>
      <trkpt lat="47.87051" lon="7.15989">
        <ele>566</ele>
        <time>2017-10-15T12:29:16.774Z</time>
      </trkpt>
      <trkpt lat="47.87023" lon="7.15948">
        <ele>568</ele>
        <time>2017-10-15T12:29:47.775Z</time>
      </trkpt>
      <trkpt lat="47.86958" lon="7.15875">
        <ele>581</ele>
        <time>2017-10-15T12:30:48.774Z</time>
      </trkpt>
      <trkpt lat="47.86931" lon="7.15833">
        <ele>580</ele>
        <time>2017-10-15T12:31:17.775Z</time>
      </trkpt>
      <trkpt lat="47.86917" lon="7.15808">
        <ele>579</ele>
        <time>2017-10-15T12:31:34.774Z</time>
      </trkpt>
      <trkpt lat="47.869" lon="7.15752">
        <ele>593</ele>
        <time>2017-10-15T12:32:34.779Z</time>
      </trkpt>
      <trkpt lat="47.86905" lon="7.15754">
        <ele>591</ele>
        <time>2017-10-15T12:33:35.78Z</time>
      </trkpt>
      <trkpt lat="47.86902" lon="7.15749">
        <ele>594</ele>
        <time>2017-10-15T12:34:35.78Z</time>
      </trkpt>
      <trkpt lat="47.86899" lon="7.15753">
        <ele>593</ele>
        <time>2017-10-15T12:35:35.79Z</time>
      </trkpt>
      <trkpt lat="47.86903" lon="7.15751">
        <ele>592</ele>
        <time>2017-10-15T12:36:36.775Z</time>
      </trkpt>
      <trkpt lat="47.86873" lon="7.1575">
        <ele>600</ele>
        <time>2017-10-15T12:37:37.77Z</time>
      </trkpt>
      <trkpt lat="47.86848" lon="7.15746">
        <ele>608</ele>
        <time>2017-10-15T12:38:19.774Z</time>
      </trkpt>
      <trkpt lat="47.8684" lon="7.15725">
        <ele>608</ele>
        <time>2017-10-15T12:38:41.773Z</time>
      </trkpt>
      <trkpt lat="47.86821" lon="7.1572">
        <ele>625</ele>
        <time>2017-10-15T12:39:14.77Z</time>
      </trkpt>
      <trkpt lat="47.86824" lon="7.15694">
        <ele>627</ele>
        <time>2017-10-15T12:39:25.77Z</time>
      </trkpt>
      <trkpt lat="47.86817" lon="7.15676">
        <ele>627</ele>
        <time>2017-10-15T12:40:03.771Z</time>
      </trkpt>
      <trkpt lat="47.86803" lon="7.15672">
        <ele>630</ele>
        <time>2017-10-15T12:40:19.77Z</time>
      </trkpt>
      <trkpt lat="47.86814" lon="7.15651">
        <ele>634</ele>
        <time>2017-10-15T12:40:58.77Z</time>
      </trkpt>
      <trkpt lat="47.86809" lon="7.15633">
        <ele>638</ele>
        <time>2017-10-15T12:41:22.773Z</time>
      </trkpt>
      <trkpt lat="47.86781" lon="7.15633">
        <ele>642</ele>
        <time>2017-10-15T12:42:04.775Z</time>
      </trkpt>
      <trkpt lat="47.86788" lon="7.15594">
        <ele>644</ele>
        <time>2017-10-15T12:43:05.775Z</time>
      </trkpt>
      <trkpt lat="47.86778" lon="7.15577">
        <ele>649</ele>
        <time>2017-10-15T12:43:23.773Z</time>
      </trkpt>
      <trkpt lat="47.86756" lon="7.15566">
        <ele>653</ele>
        <time>2017-10-15T12:43:53.775Z</time>
      </trkpt>
      <trkpt lat="47.8672" lon="7.15555">
        <ele>672</ele>
        <time>2017-10-15T12:44:54.77Z</time>
      </trkpt>
      <trkpt lat="47.86707" lon="7.15544">
        <ele>675</ele>
        <time>2017-10-15T12:45:10.773Z</time>
      </trkpt>
      <trkpt lat="47.86686" lon="7.15546">
        <ele>679</ele>
        <time>2017-10-15T12:45:38.774Z</time>
      </trkpt>
      <trkpt lat="47.86679" lon="7.15528">
        <ele>679</ele>
        <time>2017-10-15T12:45:50.771Z</time>
      </trkpt>
      <trkpt lat="47.86665" lon="7.15526">
        <ele>698</ele>
        <time>2017-10-15T12:46:20.77Z</time>
      </trkpt>
      <trkpt lat="47.86661" lon="7.15546">
        <ele>700</ele>
        <time>2017-10-15T12:46:33.779Z</time>
      </trkpt>
      <trkpt lat="47.86655" lon="7.15575">
        <ele>699</ele>
        <time>2017-10-15T12:46:57.77Z</time>
      </trkpt>
      <trkpt lat="47.86645" lon="7.15622">
        <ele>707</ele>
        <time>2017-10-15T12:47:31.771Z</time>
      </trkpt>
      <trkpt lat="47.86636" lon="7.15638">
        <ele>709</ele>
        <time>2017-10-15T12:47:47.771Z</time>
      </trkpt>
      <trkpt lat="47.86627" lon="7.15653">
        <ele>711</ele>
        <time>2017-10-15T12:48:01.773Z</time>
      </trkpt>
      <trkpt lat="47.86617" lon="7.15665">
        <ele>715</ele>
        <time>2017-10-15T12:48:18.774Z</time>
      </trkpt>
      <trkpt lat="47.8661" lon="7.1571">
        <ele>716</ele>
        <time>2017-10-15T12:48:54.775Z</time>
      </trkpt>
      <trkpt lat="47.86592" lon="7.15689">
        <ele>721</ele>
        <time>2017-10-15T12:49:06.771Z</time>
      </trkpt>
      <trkpt lat="47.86603" lon="7.1567">
        <ele>720</ele>
        <time>2017-10-15T12:49:16.773Z</time>
      </trkpt>
      <trkpt lat="47.86611" lon="7.15687">
        <ele>716</ele>
        <time>2017-10-15T12:49:31.771Z</time>
      </trkpt>
      <trkpt lat="47.86617" lon="7.15683">
        <ele>715</ele>
        <time>2017-10-15T12:50:32.775Z</time>
      </trkpt>
      <trkpt lat="47.86603" lon="7.15675">
        <ele>720</ele>
        <time>2017-10-15T12:51:32.779Z</time>
      </trkpt>
      <trkpt lat="47.86604" lon="7.15671">
        <ele>720</ele>
        <time>2017-10-15T12:52:32.78Z</time>
      </trkpt>
      <trkpt lat="47.86589" lon="7.15629">
        <ele>718</ele>
        <time>2017-10-15T12:53:31.77Z</time>
      </trkpt>
      <trkpt lat="47.86567" lon="7.15648">
        <ele>741</ele>
        <time>2017-10-15T12:54:22.77Z</time>
      </trkpt>
      <trkpt lat="47.86547" lon="7.15662">
        <ele>746</ele>
        <time>2017-10-15T12:55:12.771Z</time>
      </trkpt>
      <trkpt lat="47.86521" lon="7.15681">
        <ele>760</ele>
        <time>2017-10-15T12:56:03.774Z</time>
      </trkpt>
      <trkpt lat="47.86508" lon="7.15688">
        <ele>762</ele>
        <time>2017-10-15T12:56:36.77Z</time>
      </trkpt>
      <trkpt lat="47.86482" lon="7.15676">
        <ele>782</ele>
        <time>2017-10-15T12:57:36.775Z</time>
      </trkpt>
      <trkpt lat="47.86476" lon="7.15702">
        <ele>788</ele>
        <time>2017-10-15T12:58:14.773Z</time>
      </trkpt>
      <trkpt lat="47.8645" lon="7.15694">
        <ele>793</ele>
        <time>2017-10-15T12:59:15.773Z</time>
      </trkpt>
      <trkpt lat="47.8643" lon="7.157">
        <ele>796</ele>
        <time>2017-10-15T13:00:16.771Z</time>
      </trkpt>
      <trkpt lat="47.86416" lon="7.15695">
        <ele>815</ele>
        <time>2017-10-15T13:00:35.773Z</time>
      </trkpt>
      <trkpt lat="47.86416" lon="7.15721">
        <ele>817</ele>
        <time>2017-10-15T13:00:55.771Z</time>
      </trkpt>
      <trkpt lat="47.86403" lon="7.15728">
        <ele>818</ele>
        <time>2017-10-15T13:01:13.774Z</time>
      </trkpt>
      <trkpt lat="47.86382" lon="7.15731">
        <ele>822</ele>
        <time>2017-10-15T13:02:09.77Z</time>
      </trkpt>
      <trkpt lat="47.86363" lon="7.1573">
        <ele>827</ele>
        <time>2017-10-15T13:02:38.778Z</time>
      </trkpt>
      <trkpt lat="47.86353" lon="7.15753">
        <ele>836</ele>
        <time>2017-10-15T13:03:38.785Z</time>
      </trkpt>
      <trkpt lat="47.86341" lon="7.15737">
        <ele>834</ele>
        <time>2017-10-15T13:04:39.778Z</time>
      </trkpt>
      <trkpt lat="47.8633" lon="7.15761">
        <ele>852</ele>
        <time>2017-10-15T13:05:09.775Z</time>
      </trkpt>
      <trkpt lat="47.8631" lon="7.15774">
        <ele>859</ele>
        <time>2017-10-15T13:05:40.775Z</time>
      </trkpt>
      <trkpt lat="47.86316" lon="7.15803">
        <ele>860</ele>
        <time>2017-10-15T13:06:08.773Z</time>
      </trkpt>
      <trkpt lat="47.86291" lon="7.15796">
        <ele>865</ele>
        <time>2017-10-15T13:06:40.771Z</time>
      </trkpt>
      <trkpt lat="47.86261" lon="7.15786">
        <ele>870</ele>
        <time>2017-10-15T13:07:30.773Z</time>
      </trkpt>
      <trkpt lat="47.86247" lon="7.15782">
        <ele>889</ele>
        <time>2017-10-15T13:07:46.77Z</time>
      </trkpt>
      <trkpt lat="47.86234" lon="7.1578">
        <ele>891</ele>
        <time>2017-10-15T13:08:03.774Z</time>
      </trkpt>
      <trkpt lat="47.86207" lon="7.15765">
        <ele>895</ele>
        <time>2017-10-15T13:08:44.771Z</time>
      </trkpt>
      <trkpt lat="47.86172" lon="7.15752">
        <ele>902</ele>
        <time>2017-10-15T13:09:45.77Z</time>
      </trkpt>
      <trkpt lat="47.86178" lon="7.15771">
        <ele>899</ele>
        <time>2017-10-15T13:09:56.77Z</time>
      </trkpt>
      <trkpt lat="47.86162" lon="7.15762">
        <ele>909</ele>
        <time>2017-10-15T13:10:24.77Z</time>
      </trkpt>
      <trkpt lat="47.8615" lon="7.15744">
        <ele>905</ele>
        <time>2017-10-15T13:10:37.77Z</time>
      </trkpt>
      <trkpt lat="47.8615" lon="7.15723">
        <ele>904</ele>
        <time>2017-10-15T13:11:37.773Z</time>
      </trkpt>
      <trkpt lat="47.86151" lon="7.15726">
        <ele>904</ele>
        <time>2017-10-15T13:12:37.778Z</time>
      </trkpt>
      <trkpt lat="47.86151" lon="7.15726">
        <ele>904</ele>
        <time>2017-10-15T13:13:37.778Z</time>
      </trkpt>
      <trkpt lat="47.86149" lon="7.15722">
        <ele>904</ele>
        <time>2017-10-15T13:14:37.778Z</time>
      </trkpt>
      <trkpt lat="47.8615" lon="7.15725">
        <ele>904</ele>
        <time>2017-10-15T13:15:37.785Z</time>
      </trkpt>
      <trkpt lat="47.86143" lon="7.15728">
        <ele>905</ele>
        <time>2017-10-15T13:16:38.771Z</time>
      </trkpt>
      <trkpt lat="47.86143" lon="7.15723">
        <ele>905</ele>
        <time>2017-10-15T13:17:38.78Z</time>
      </trkpt>
      <trkpt lat="47.86141" lon="7.15725">
        <ele>905</ele>
        <time>2017-10-15T13:18:39.775Z</time>
      </trkpt>
      <trkpt lat="47.86143" lon="7.15725">
        <ele>905</ele>
        <time>2017-10-15T13:19:39.776Z</time>
      </trkpt>
      <trkpt lat="47.86142" lon="7.15727">
        <ele>905</ele>
        <time>2017-10-15T13:20:39.778Z</time>
      </trkpt>
      <trkpt lat="47.86142" lon="7.15727">
        <ele>905</ele>
        <time>2017-10-15T13:21:39.78Z</time>
      </trkpt>
      <trkpt lat="47.86142" lon="7.15727">
        <ele>905</ele>
        <time>2017-10-15T13:22:40.78Z</time>
      </trkpt>
      <trkpt lat="47.86141" lon="7.15728">
        <ele>905</ele>
        <time>2017-10-15T13:23:40.784Z</time>
      </trkpt>
      <trkpt lat="47.86144" lon="7.15726">
        <ele>905</ele>
        <time>2017-10-15T13:24:41.78Z</time>
      </trkpt>
      <trkpt lat="47.86142" lon="7.1573">
        <ele>905</ele>
        <time>2017-10-15T13:25:41.78Z</time>
      </trkpt>
      <trkpt lat="47.8614" lon="7.15738">
        <ele>905</ele>
        <time>2017-10-15T13:26:42.775Z</time>
      </trkpt>
      <trkpt lat="47.8614" lon="7.15738">
        <ele>905</ele>
        <time>2017-10-15T13:27:42.793Z</time>
      </trkpt>
      <trkpt lat="47.8615" lon="7.15707">
        <ele>903</ele>
        <time>2017-10-15T13:28:43.775Z</time>
      </trkpt>
      <trkpt lat="47.86117" lon="7.15662">
        <ele>898</ele>
        <time>2017-10-15T13:29:39.785Z</time>
      </trkpt>
      <trkpt lat="47.86088" lon="7.15598">
        <ele>898</ele>
        <time>2017-10-15T13:30:26.784Z</time>
      </trkpt>
      <trkpt lat="47.86062" lon="7.15532">
        <ele>895</ele>
        <time>2017-10-15T13:31:09.773Z</time>
      </trkpt>
      <trkpt lat="47.86031" lon="7.15481">
        <ele>892</ele>
        <time>2017-10-15T13:31:50.78Z</time>
      </trkpt>
      <trkpt lat="47.86016" lon="7.1546">
        <ele>891</ele>
        <time>2017-10-15T13:32:15.781Z</time>
      </trkpt>
      <trkpt lat="47.86001" lon="7.15396">
        <ele>889</ele>
        <time>2017-10-15T13:32:58.78Z</time>
      </trkpt>
      <trkpt lat="47.85986" lon="7.15332">
        <ele>887</ele>
        <time>2017-10-15T13:33:33.779Z</time>
      </trkpt>
      <trkpt lat="47.85977" lon="7.15311">
        <ele>885</ele>
        <time>2017-10-15T13:33:45.775Z</time>
      </trkpt>
      <trkpt lat="47.85958" lon="7.15282">
        <ele>884</ele>
        <time>2017-10-15T13:33:58.776Z</time>
      </trkpt>
      <trkpt lat="47.8594" lon="7.1526">
        <ele>883</ele>
        <time>2017-10-15T13:34:44.78Z</time>
      </trkpt>
      <trkpt lat="47.85933" lon="7.15243">
        <ele>884</ele>
        <time>2017-10-15T13:35:13.78Z</time>
      </trkpt>
      <trkpt lat="47.85927" lon="7.15224">
        <ele>885</ele>
        <time>2017-10-15T13:35:26.785Z</time>
      </trkpt>
      <trkpt lat="47.85918" lon="7.15156">
        <ele>892</ele>
        <time>2017-10-15T13:36:24.774Z</time>
      </trkpt>
      <trkpt lat="47.85904" lon="7.15095">
        <ele>895</ele>
        <time>2017-10-15T13:37:24.79Z</time>
      </trkpt>
      <trkpt lat="47.8589" lon="7.15039">
        <ele>898</ele>
        <time>2017-10-15T13:38:13.774Z</time>
      </trkpt>
      <trkpt lat="47.85888" lon="7.14999">
        <ele>899</ele>
        <time>2017-10-15T13:39:04.773Z</time>
      </trkpt>
      <trkpt lat="47.85886" lon="7.14977">
        <ele>899</ele>
        <time>2017-10-15T13:39:16.77Z</time>
      </trkpt>
      <trkpt lat="47.85883" lon="7.14957">
        <ele>899</ele>
        <time>2017-10-15T13:39:37.775Z</time>
      </trkpt>
      <trkpt lat="47.85878" lon="7.14939">
        <ele>899</ele>
        <time>2017-10-15T13:39:51.773Z</time>
      </trkpt>
      <trkpt lat="47.85871" lon="7.14918">
        <ele>899</ele>
        <time>2017-10-15T13:40:04.771Z</time>
      </trkpt>
      <trkpt lat="47.85864" lon="7.14888">
        <ele>900</ele>
        <time>2017-10-15T13:40:22.773Z</time>
      </trkpt>
      <trkpt lat="47.85849" lon="7.14873">
        <ele>902</ele>
        <time>2017-10-15T13:41:18.779Z</time>
      </trkpt>
    </trkseg>
  </trk>
</gpx>